Time;durP1;ratioP1;P1;durP2;ratioP2;P2;SDS_P1;SDS_P2;PMS_P1;PMS_P2;Temp;Humidity;BMP_temperature;BMP_pressure;BME280_temperature;BME280_humidity;BME280_pressure;Samples;Min_cycle;Max_cycle;Signal;HPM_P1;HPM_P2
2023/10/10 00:00:24;;;;;;;14.40;8.30;;;;;;;16.21;59.67;98488.13;5088791;28;20449;-73
2023/10/10 00:02:51;;;;;;;16.43;8.80;;;;;;;16.29;59.00;98485.09;5089512;28;20469;-73
2023/10/10 00:05:18;;;;;;;12.47;8.00;;;;;;;16.29;59.22;98482.34;5089706;28;20487;-74
2023/10/10 00:07:46;;;;;;;13.80;7.30;;;;;;;16.35;58.94;98486.91;5086379;28;20469;-74
2023/10/10 00:10:13;;;;;;;14.57;8.80;;;;;;;16.42;59.05;98482.22;5088723;28;20528;-74
2023/10/10 00:12:41;;;;;;;16.07;8.80;;;;;;;16.43;59.28;98481.16;5090105;28;21103;-73
2023/10/10 00:15:22;;;;;;;13.03;8.53;;;;;;;16.24;59.74;98482.22;5086680;28;20473;-74
2023/10/10 00:17:50;;;;;;;12.83;8.00;;;;;;;16.06;60.43;98486.59;5085775;28;21123;-74
2023/10/10 00:20:22;;;;;;;12.53;7.60;;;;;;;16.23;60.00;98480.56;5090164;28;20445;-74
2023/10/10 00:22:55;;;;;;;13.97;8.20;;;;;;;15.97;60.47;98489.84;5089556;28;20591;-73
2023/10/10 00:25:30;;;;;;;16.27;8.27;;;;;;;15.82;61.41;98479.28;5084133;28;20485;-73
2023/10/10 00:28:04;;;;;;;14.50;9.17;;;;;;;15.81;61.55;98477.63;5087991;28;20467;-73
2023/10/10 00:30:34;;;;;;;11.63;7.67;;;;;;;15.68;62.00;98480.47;5088184;28;20991;-74
2023/10/10 00:33:04;;;;;;;13.60;8.10;;;;;;;15.71;61.87;98469.09;5087331;28;20500;-74
2023/10/10 00:35:32;;;;;;;14.67;7.83;;;;;;;15.63;62.25;98469.38;5085394;28;20472;-74
2023/10/10 00:37:59;;;;;;;13.80;7.93;;;;;;;15.46;63.05;98471.81;5086590;28;20461;-74
2023/10/10 00:40:29;;;;;;;13.87;7.90;;;;;;;15.48;62.96;98466.16;5087677;28;20471;-73
2023/10/10 00:42:58;;;;;;;12.67;7.30;;;;;;;15.61;62.59;98463.31;5088524;28;20877;-73
2023/10/10 00:45:35;;;;;;;14.20;8.13;;;;;;;15.30;63.41;98470.47;5088522;28;20466;-73
2023/10/10 00:48:03;;;;;;;11.67;7.27;;;;;;;15.20;64.10;98467.41;5088411;28;21149;-74
2023/10/10 00:50:34;;;;;;;15.07;7.50;;;;;;;15.26;63.91;98461.09;5083877;28;20463;-73
2023/10/10 00:53:03;;;;;;;14.03;7.90;;;;;;;15.29;63.83;98468.78;5090258;28;20511;-73
2023/10/10 00:55:33;;;;;;;13.30;7.60;;;;;;;15.42;63.63;98463.25;5089958;28;20459;-73
2023/10/10 00:58:01;;;;;;;12.10;6.87;;;;;;;15.37;64.02;98459.50;5089863;28;20794;-73
2023/10/10 01:00:30;;;;;;;14.70;7.67;;;;;;;15.42;63.75;98468.69;5088009;28;20468;-73
2023/10/10 01:03:07;;;;;;;14.17;7.80;;;;;;;15.43;63.68;98464.91;5095323;28;20472;-74
2023/10/10 01:05:40;;;;;;;15.00;6.63;;;;;;;15.22;64.44;98468.03;5091705;28;20490;-73
2023/10/10 01:08:08;;;;;;;13.20;7.00;;;;;;;14.83;66.25;98465.56;5088616;28;20448;-73
2023/10/10 01:10:42;;;;;;;15.90;6.87;;;;;;;14.96;65.90;98469.03;5083995;28;20458;-74
2023/10/10 01:13:10;;;;;;;14.37;6.83;;;;;;;14.96;65.68;98476.38;5087958;28;20492;-74
2023/10/10 01:15:38;;;;;;;12.73;7.47;;;;;;;15.03;65.32;98469.00;5089958;28;20495;-73
2023/10/10 01:18:13;;;;;;;13.23;6.80;;;;;;;15.08;65.18;98461.84;5088997;28;20456;-73
2023/10/10 01:20:45;;;;;;;12.13;6.33;;;;;;;15.09;64.79;98451.75;5084151;28;20799;-73
2023/10/10 01:23:14;;;;;;;9.97;6.33;;;;;;;15.12;64.86;98456.78;5088839;28;20477;-74
2023/10/10 01:25:45;;;;;;;14.43;6.43;;;;;;;15.38;64.21;98456.56;5086564;28;20457;-74
2023/10/10 01:28:27;;;;;;;12.43;6.60;;;;;;;15.28;64.29;98447.19;5089182;28;20536;-73
2023/10/10 01:31:03;;;;;;;13.27;7.20;;;;;;;15.35;64.05;98451.56;5085269;28;21004;-74
2023/10/10 01:33:41;;;;;;;13.00;6.97;;;;;;;15.29;64.36;98449.72;5083924;28;21057;-74
2023/10/10 01:36:19;;;;;;;12.50;6.73;;;;;;;15.18;64.97;98449.63;5079815;28;20464;-73
2023/10/10 01:39:19;;;;;;;14.47;6.63;;;;;;;15.00;65.87;98453.06;5087834;28;20459;-73
2023/10/10 01:41:48;;;;;;;14.40;7.33;;;;;;;14.96;66.23;98446.38;5087821;28;20472;-73
2023/10/10 01:44:18;;;;;;;14.03;7.70;;;;;;;14.75;67.20;98444.88;5087888;28;20456;-73
2023/10/10 01:46:45;;;;;;;11.90;7.70;;;;;;;14.48;68.08;98444.19;5087248;28;20456;-73
2023/10/10 01:49:14;;;;;;;13.03;7.17;;;;;;;14.50;68.58;98449.41;5085942;28;20559;-73
2023/10/10 01:51:44;;;;;;;10.97;7.13;;;;;;;14.36;69.14;98451.31;5088112;28;20467;-73
2023/10/10 01:54:15;;;;;;;13.60;7.93;;;;;;;14.32;69.55;98439.19;5081836;28;20490;-74
2023/10/10 01:56:43;;;;;;;13.77;7.07;;;;;;;14.38;69.46;98443.75;5087042;28;20534;-74
2023/10/10 01:59:13;;;;;;;12.87;7.20;;;;;;;14.40;69.72;98449.84;5086120;28;20464;-74
2023/10/10 02:01:41;;;;;;;14.87;8.43;;;;;;;14.35;69.84;98449.63;5087147;28;20537;-73
2023/10/10 02:04:09;;;;;;;15.53;7.57;;;;;;;14.24;70.64;98444.88;5086575;28;20525;-73
2023/10/10 02:06:35;;;;;;;15.77;8.00;;;;;;;14.27;70.50;98449.91;5087933;28;21093;-73
2023/10/10 02:09:11;;;;;;;16.63;8.00;;;;;;;14.22;70.93;98441.53;5081779;28;21184;-73
2023/10/10 02:11:49;;;;;;;15.07;8.93;;;;;;;14.06;71.72;98446.41;5086473;28;20483;-73
2023/10/10 02:14:18;;;;;;;16.23;7.57;;;;;;;14.06;71.66;98445.56;5085513;28;20496;-74
2023/10/10 02:16:48;;;;;;;17.60;8.27;;;;;;;14.11;71.23;98449.31;5082806;28;20549;-73
2023/10/10 02:19:25;;;;;;;16.20;8.27;;;;;;;13.78;72.65;98445.84;5088519;28;21009;-73
2023/10/10 02:22:03;;;;;;;13.07;8.00;;;;;;;13.69;73.43;98449.84;5086968;28;20508;-74
2023/10/10 02:24:40;;;;;;;10.60;7.43;;;;;;;13.59;73.41;98449.47;5084281;28;20798;-73
2023/10/10 02:27:06;;;;;;;16.97;8.90;;;;;;;13.75;73.44;98443.56;5085806;28;20474;-74
2023/10/10 02:29:36;;;;;;;16.30;9.13;;;;;;;13.70;73.59;98448.78;5082725;28;21067;-73
2023/10/10 02:32:12;;;;;;;15.63;9.00;;;;;;;13.53;74.43;98447.56;5085487;28;20245;-73
2023/10/10 02:34:42;;;;;;;13.63;9.63;;;;;;;13.44;74.49;98438.78;5093765;28;20477;-73
2023/10/10 02:37:41;;;;;;;13.85;9.00;;;;;;;13.35;75.54;98449.03;5080833;28;20239;-73
2023/10/10 02:40:12;;;;;;;17.17;9.02;;;;;;;13.30;75.54;98454.28;5085623;28;20292;-73
2023/10/10 02:42:39;;;;;;;19.40;9.43;;;;;;;13.22;76.00;98459.94;5086132;28;20250;-73
2023/10/10 02:45:07;;;;;;;15.32;9.27;;;;;;;13.15;76.41;98456.34;5082235;28;20544;-74
2023/10/10 02:47:33;;;;;;;20.35;9.05;;;;;;;13.33;75.94;98456.56;5084613;28;20239;-73
2023/10/10 02:50:09;;;;;;;16.65;9.20;;;;;;;13.02;77.13;98453.59;5088218;28;20197;-73
2023/10/10 02:52:39;;;;;;;16.90;9.50;;;;;;;13.03;76.97;98456.09;5087711;28;20263;-73
2023/10/10 02:55:14;;;;;;;15.70;9.40;;;;;;;13.06;77.32;98457.56;5088871;28;21053;-73
2023/10/10 02:57:41;;;;;;;21.73;10.38;;;;;;;13.08;77.16;98461.75;5085707;28;20277;-73
2023/10/10 03:00:27;;;;;;;13.15;7.90;;;;;;;13.09;77.28;98455.28;5085558;28;20256;-73
2023/10/10 03:02:56;;;;;;;14.82;9.02;;;;;;;13.00;77.69;98451.09;5087710;28;20226;-74
2023/10/10 03:08:12;;;;;;;19.58;9.52;;;;;;;12.89;78.70;98442.72;5088208;28;20316;-74
2023/10/10 03:10:44;;;;;;;15.13;9.40;;;;;;;13.09;77.80;98444.41;5088219;28;20194;-74
2023/10/10 03:13:27;;;;;;;24.08;9.63;;;;;;;12.95;78.39;98437.31;5088253;28;20283;-73
2023/10/10 03:15:56;;;;;;;13.15;9.23;;;;;;;12.88;78.63;98441.06;5089201;28;20248;-74
2023/10/10 03:18:30;;;;;;;14.52;8.98;;;;;;;12.83;79.19;98446.28;5087376;28;20195;-74
2023/10/10 03:21:12;;;;;;;15.15;8.73;;;;;;;12.85;78.92;98449.63;5090216;28;20235;-74
2023/10/10 03:23:53;;;;;;;18.00;10.13;;;;;;;12.85;78.86;98445.03;5090764;28;20199;-74
2023/10/10 03:26:34;;;;;;;12.43;8.48;;;;;;;12.77;79.30;98446.03;5091019;28;20200;-74
2023/10/10 03:29:04;;;;;;;22.00;10.27;;;;;;;12.77;79.11;98431.63;5090707;28;20277;-74
2023/10/10 03:31:41;;;;;;;20.02;9.60;;;;;;;12.78;79.42;98446.88;5087090;28;20223;-74
2023/10/10 03:34:18;;;;;;;17.98;9.93;;;;;;;12.68;80.13;98452.69;5088652;28;20318;-73
2023/10/10 03:36:45;;;;;;;14.13;8.25;;;;;;;12.48;80.96;98440.97;5086879;28;20282;-73
2023/10/10 03:39:25;;;;;;;20.00;9.65;;;;;;;12.40;81.62;98439.25;5085282;28;20209;-74
2023/10/10 05:23:31;;;;;;;15.90;7.72;;;;;;;12.06;84.83;98458.31;5076548;28;20235;-73
2023/10/10 05:25:59;;;;;;;14.27;7.28;;;;;;;12.11;84.63;98458.56;5074077;28;20200;-73
2023/10/10 05:28:30;;;;;;;20.00;7.75;;;;;;;12.23;84.01;98448.81;5080030;28;20195;-74
2023/10/10 05:30:57;;;;;;;16.60;8.98;;;;;;;12.17;84.32;98449.63;5086106;28;20219;-74
2023/10/10 05:33:26;;;;;;;13.60;8.20;;;;;;;12.13;84.43;98458.38;5085936;28;20675;-73
2023/10/10 05:35:59;;;;;;;18.08;7.65;;;;;;;12.07;84.93;98455.41;5082201;28;22149;-73
2023/10/10 05:38:26;;;;;;;15.15;7.00;;;;;;;12.05;84.96;98452.06;5085655;28;20195;-74
2023/10/10 05:40:53;;;;;;;11.48;7.07;;;;;;;12.13;84.42;98442.09;5081395;28;20247;-75
2023/10/10 05:43:26;;;;;;;15.07;8.23;;;;;;;12.19;84.43;98458.41;5086594;28;20343;-73
2023/10/10 05:45:54;;;;;;;13.07;7.60;;;;;;;12.15;84.20;98462.56;5086574;28;20290;-73
2023/10/10 05:48:21;;;;;;;14.45;8.68;;;;;;;12.00;84.95;98460.00;5088927;28;20212;-74
2023/10/10 05:50:48;;;;;;;17.80;9.20;;;;;;;11.93;85.12;98461.81;5085343;28;20200;-73
2023/10/10 05:53:16;;;;;;;13.07;8.40;;;;;;;11.89;86.04;98467.84;5087170;28;20200;-74
2023/10/10 05:55:43;;;;;;;15.55;8.50;;;;;;;11.87;86.09;98470.75;5086679;28;20227;-73
2023/10/10 05:58:12;;;;;;;15.05;9.05;;;;;;;11.84;86.13;98467.59;5088007;28;20207;-75
2023/10/10 06:00:41;;;;;;;12.50;8.30;;;;;;;11.88;85.93;98469.72;5075789;28;20206;-74
2023/10/10 06:03:09;;;;;;;14.18;8.60;;;;;;;12.12;85.05;98468.38;5084869;28;20655;-75
2023/10/10 06:05:36;;;;;;;14.63;8.98;;;;;;;12.16;85.06;98480.50;5080395;28;20204;-74
2023/10/10 06:08:05;;;;;;;20.92;10.00;;;;;;;12.35;83.99;98474.31;5080525;28;20196;-74
2023/10/10 06:10:33;;;;;;;18.45;9.60;;;;;;;12.28;83.93;98475.34;5077112;28;24234;-74
2023/10/10 06:13:03;;;;;;;14.88;8.27;;;;;;;12.42;83.25;98471.63;5080764;28;20734;-74
2023/10/10 06:15:33;;;;;;;15.13;9.48;;;;;;;12.31;83.25;98472.25;5088830;28;20227;-74
2023/10/10 06:18:08;;;;;;;18.63;10.75;;;;;;;12.41;83.13;98478.94;5079462;28;20204;-73
2023/10/10 06:20:40;;;;;;;15.15;9.32;;;;;;;12.22;83.83;98478.88;5079457;28;20584;-73
2023/10/10 06:23:08;;;;;;;14.18;8.40;;;;;;;12.26;83.69;98472.00;5082288;28;20257;-72
2023/10/10 06:25:38;;;;;;;20.57;9.90;;;;;;;12.25;83.57;98479.31;5085724;28;20298;-74
2023/10/10 06:28:14;;;;;;;14.52;8.88;;;;;;;12.54;82.81;98472.72;5083352;28;20450;-73
2023/10/10 06:30:44;;;;;;;16.88;8.75;;;;;;;12.68;81.53;98479.84;5083872;28;20197;-74
2023/10/10 06:33:15;;;;;;;14.20;8.88;;;;;;;12.78;81.11;98474.88;5082143;28;20204;-74
2023/10/10 06:35:52;;;;;;;17.03;9.00;;;;;;;13.04;79.78;98473.25;5081141;28;20219;-75
2023/10/10 06:38:24;;;;;;;14.57;7.77;;;;;;;13.05;79.49;98475.75;5081927;28;20460;-74
2023/10/10 06:40:53;;;;;;;17.07;8.30;;;;;;;13.02;79.81;98486.19;5081231;28;21014;-74
2023/10/10 06:43:20;;;;;;;14.38;7.75;;;;;;;12.74;80.47;98484.47;5083024;28;20438;-72
2023/10/10 06:45:54;;;;;;;17.98;8.52;;;;;;;12.72;81.02;98485.72;5085994;28;20199;-74
2023/10/10 06:48:22;;;;;;;11.88;8.00;;;;;;;12.70;80.87;98490.53;5083075;28;20200;-72
2023/10/10 06:50:50;;;;;;;14.07;8.20;;;;;;;12.81;80.30;98486.38;5086058;28;20215;-73
2023/10/10 06:53:34;;;;;;;15.03;7.83;;;;;;;12.93;79.61;98487.47;5086251;28;20450;-73
2023/10/10 06:56:15;;;;;;;11.77;7.85;;;;;;;13.12;78.94;98487.47;5081995;28;20519;-72
2023/10/10 06:58:45;;;;;;;15.80;7.53;;;;;;;13.43;77.71;98484.19;5084023;28;20211;-72
2023/10/10 07:01:12;;;;;;;15.20;8.27;;;;;;;13.57;76.65;98481.47;5083890;28;20893;-73
2023/10/10 07:03:42;;;;;;;14.20;7.97;;;;;;;13.89;75.44;98482.47;5085840;28;20451;-72
2023/10/10 07:06:09;;;;;;;16.23;8.20;;;;;;;14.12;74.26;98493.72;5087550;28;20450;-73
2023/10/10 07:08:36;;;;;;;14.03;8.00;;;;;;;14.47;73.09;98483.34;5090493;28;20546;-72
2023/10/10 07:11:05;;;;;;;14.00;8.43;;;;;;;14.75;71.92;98478.41;5085518;28;20523;-72
2023/10/10 07:13:35;;;;;;;14.77;8.00;;;;;;;15.16;70.29;98482.56;5083746;28;20579;-72
2023/10/10 07:16:02;;;;;;;11.50;7.93;;;;;;;15.88;67.82;98481.13;5081364;28;20825;-73
2023/10/10 07:18:30;;;;;;;12.67;7.40;;;;;;;16.50;65.36;98481.91;5078329;28;20547;-73
2023/10/10 07:21:08;;;;;;;12.83;7.90;;;;;;;16.85;63.32;98494.94;5082981;28;20552;-73
2023/10/10 07:23:53;;;;;;;12.30;8.80;;;;;;;16.83;63.31;98477.94;5084988;28;21027;-73
2023/10/10 07:26:21;;;;;;;16.37;8.90;;;;;;;16.85;63.15;98479.38;5085812;28;20448;-73
2023/10/10 07:28:49;;;;;;;12.47;8.13;;;;;;;16.92;62.29;98480.09;5082708;28;20457;-73
2023/10/10 07:31:18;;;;;;;14.90;7.87;;;;;;;17.19;61.76;98486.03;5078013;28;20514;-73
2023/10/10 07:33:54;;;;;;;16.07;7.93;;;;;;;17.04;62.05;98477.41;5085729;28;20853;-73
2023/10/10 07:36:24;;;;;;;13.13;7.93;;;;;;;17.04;62.26;98477.41;5085877;28;20560;-72
2023/10/10 07:38:54;;;;;;;11.77;6.87;;;;;;;17.32;61.79;98485.81;5083194;28;20454;-73
2023/10/10 07:41:27;;;;;;;14.07;8.40;;;;;;;17.42;61.08;98483.34;5079569;28;20469;-73
2023/10/10 07:43:56;;;;;;;13.17;8.00;;;;;;;17.94;59.44;98494.47;5083565;28;20532;-73
2023/10/10 07:46:23;;;;;;;15.83;7.87;;;;;;;18.04;58.69;98489.25;5076061;28;20469;-73
2023/10/10 07:48:54;;;;;;;13.13;8.30;;;;;;;18.24;58.28;98494.34;5079219;28;20549;-73
2023/10/10 07:51:28;;;;;;;14.87;8.70;;;;;;;18.27;58.08;98493.03;5087467;28;20514;-73
2023/10/10 07:54:10;;;;;;;17.33;7.53;;;;;;;18.74;57.01;98489.13;5089772;28;20549;-73
2023/10/10 07:56:45;;;;;;;16.17;8.27;;;;;;;18.74;56.36;98497.38;5089275;28;20516;-73
2023/10/10 07:59:13;;;;;;;17.13;8.07;;;;;;;19.23;55.52;98496.91;5084694;28;20456;-73
2023/10/10 08:01:41;;;;;;;12.23;7.50;;;;;;;18.88;55.85;98497.91;5085592;28;20484;-74
2023/10/10 08:04:08;;;;;;;16.47;7.70;;;;;;;18.72;56.83;98490.47;5086646;28;20471;-73
2023/10/10 08:06:35;;;;;;;12.73;8.07;;;;;;;18.42;57.64;98496.09;5087966;28;20466;-73
2023/10/10 08:09:12;;;;;;;14.70;8.37;;;;;;;18.39;58.23;98502.06;5089281;28;20459;-73
2023/10/10 08:11:46;;;;;;;13.13;8.10;;;;;;;18.65;57.98;98504.31;5083141;28;20477;-73
2023/10/10 08:14:17;;;;;;;14.00;8.43;;;;;;;19.06;56.24;98499.63;5081410;28;20449;-73
2023/10/10 08:16:43;;;;;;;12.57;8.07;;;;;;;19.56;54.90;98501.66;5079193;28;20493;-74
2023/10/10 08:19:10;;;;;;;13.50;7.97;;;;;;;20.22;52.38;98498.03;5089401;28;20474;-74
2023/10/10 08:21:39;;;;;;;14.50;7.30;;;;;;;20.56;51.45;98500.72;5088774;28;20473;-73
2023/10/10 08:24:07;;;;;;;13.17;7.23;;;;;;;20.63;50.20;98504.09;5089595;28;20469;-73
2023/10/10 08:26:39;;;;;;;10.20;8.00;;;;;;;21.32;49.34;98504.38;5085171;28;20461;-74
2023/10/10 08:29:08;;;;;;;12.67;7.30;;;;;;;20.90;49.75;98507.75;5085722;28;20528;-73
2023/10/10 08:31:37;;;;;;;14.60;8.37;;;;;;;21.19;49.94;98505.59;5084800;28;21019;-73
2023/10/10 08:34:04;;;;;;;14.60;7.70;;;;;;;21.10;49.49;98507.16;5083767;28;20951;-73
2023/10/10 08:36:32;;;;;;;17.90;9.80;;;;;;;20.51;49.81;98512.47;5085328;28;20571;-73
2023/10/10 08:39:12;;;;;;;12.90;7.63;;;;;;;20.28;51.17;98509.94;5098696;28;20457;-74
2023/10/10 08:41:39;;;;;;;11.90;7.57;;;;;;;20.21;51.01;98501.03;5086768;28;20473;-73
2023/10/10 08:44:10;;;;;;;11.73;7.80;;;;;;;20.80;50.03;98508.44;5079288;28;20889;-73
2023/10/10 08:46:45;;;;;;;12.70;7.70;;;;;;;21.04;49.62;98508.19;5083908;28;20484;-73
2023/10/10 08:49:14;;;;;;;14.50;8.80;;;;;;;21.57;48.63;98506.53;5089314;28;20456;-74
2023/10/10 08:51:42;;;;;;;15.90;7.93;;;;;;;21.13;48.76;98495.59;5085776;28;20561;-74
2023/10/10 08:54:11;;;;;;;13.37;7.80;;;;;;;21.36;48.82;98489.84;5082346;28;20816;-74
2023/10/10 08:56:39;;;;;;;15.30;7.27;;;;;;;21.42;47.88;98494.31;5086693;28;20535;-74
2023/10/10 08:59:10;;;;;;;13.20;7.40;;;;;;;21.50;47.05;98494.91;5086587;28;20522;-75
2023/10/10 09:01:36;;;;;;;11.27;7.40;;;;;;;21.42;47.33;98487.97;5081166;28;21008;-74
2023/10/10 09:04:04;;;;;;;11.17;7.50;;;;;;;21.83;46.13;98489.13;5086044;28;20540;-74
2023/10/10 09:06:42;;;;;;;11.80;6.73;;;;;;;21.77;46.08;98495.69;5087982;28;21043;-74
2023/10/10 09:09:33;;;;;;;11.00;7.17;;;;;;;21.76;46.86;98496.81;5084331;28;20540;-75
2023/10/10 09:12:02;;;;;;;9.43;6.50;;;;;;;21.74;46.19;98493.47;5076049;28;20503;-73
2023/10/10 09:14:41;;;;;;;13.17;7.70;;;;;;;21.69;46.69;98494.28;5086722;28;20453;-73
2023/10/10 09:17:12;;;;;;;12.87;7.70;;;;;;;21.88;45.53;98496.59;5086999;28;20457;-74
2023/10/10 09:19:46;;;;;;;11.83;7.47;;;;;;;22.21;45.19;98495.50;5086498;28;20480;-74
2023/10/10 09:22:25;;;;;;;13.20;6.93;;;;;;;22.78;44.10;98498.28;5086400;28;20560;-74
2023/10/10 09:24:55;;;;;;;15.20;6.50;;;;;;;23.20;42.53;98500.94;5081206;28;20465;-74
2023/10/10 09:27:23;;;;;;;11.27;6.87;;;;;;;23.60;41.51;98496.59;5076165;28;20921;-75
2023/10/10 09:29:54;;;;;;;12.43;6.57;;;;;;;24.05;40.53;98493.81;5086955;28;20491;-75
2023/10/10 09:32:28;;;;;;;11.17;5.73;;;;;;;23.92;40.67;98499.94;5089216;28;20873;-75
2023/10/10 09:34:57;;;;;;;11.03;5.93;;;;;;;24.35;39.44;98497.69;5088260;28;20444;-73
2023/10/10 09:37:30;;;;;;;10.83;6.83;;;;;;;24.81;38.64;98489.22;5088097;28;20891;-74
2023/10/10 09:39:59;;;;;;;10.50;5.70;;;;;;;24.21;38.51;98485.50;5084706;28;20477;-75
2023/10/10 09:42:44;;;;;;;10.30;5.80;;;;;;;24.50;38.42;98489.34;5087919;28;20603;-75
2023/10/10 09:45:18;;;;;;;8.87;6.07;;;;;;;24.57;39.18;98487.09;5076598;28;20825;-75
2023/10/10 09:47:56;;;;;;;11.73;6.63;;;;;;;24.27;39.88;98485.25;5084865;28;20464;-74
2023/10/10 09:50:34;;;;;;;10.60;6.40;;;;;;;24.62;38.26;98487.09;5081363;28;21231;-75
2023/10/10 09:53:06;;;;;;;10.40;5.50;;;;;;;24.70;38.91;98489.25;5085069;28;20852;-74
2023/10/10 09:55:39;;;;;;;10.33;6.27;;;;;;;24.72;39.31;98486.19;5085375;28;20969;-74
2023/10/10 09:58:24;;;;;;;10.47;5.63;;;;;;;25.51;37.61;98484.41;5084644;28;20464;-73
2023/10/10 10:00:53;;;;;;;9.63;5.70;;;;;;;25.40;36.79;98487.25;5079802;28;20564;-74
2023/10/10 10:03:42;;;;;;;9.20;5.70;;;;;;;25.02;36.67;98491.63;5085396;28;20975;-74
2023/10/10 10:09:14;;;;;;;11.63;5.83;;;;;;;25.72;35.74;98502.56;5090228;28;20449;-74
2023/10/10 10:11:52;;;;;;;13.20;5.90;;;;;;;25.53;36.09;98504.38;5091685;28;20469;-76
2023/10/10 10:14:25;;;;;;;9.30;6.07;;;;;;;25.61;35.65;98501.00;5082843;28;20522;-74
2023/10/10 10:17:00;;;;;;;10.40;6.00;;;;;;;25.49;35.78;98500.50;5078997;28;20477;-74
2023/10/10 10:19:28;;;;;;;10.30;5.93;;;;;;;25.80;35.50;98501.13;5086487;28;20833;-74
2023/10/10 10:22:08;;;;;;;8.43;5.40;;;;;;;25.85;33.42;98507.47;5077798;28;20526;-74
2023/10/10 10:24:52;;;;;;;10.50;6.70;;;;;;;25.89;33.50;98499.41;5084521;28;20824;-74
2023/10/10 10:27:24;;;;;;;12.20;6.87;;;;;;;26.04;33.56;98500.09;5082509;28;20858;-73
2023/10/10 10:29:54;;;;;;;9.60;5.63;;;;;;;26.19;33.40;98503.84;5079658;28;20466;-74
2023/10/10 10:32:25;;;;;;;12.03;6.30;;;;;;;26.04;33.07;98497.31;5081859;28;20469;-74
2023/10/10 10:34:56;;;;;;;10.00;5.87;;;;;;;26.53;33.46;98509.34;5087176;28;20971;-74
2023/10/10 10:37:28;;;;;;;12.37;5.90;;;;;;;27.11;31.91;98504.50;5084552;28;20489;-74
2023/10/10 10:42:47;;;;;;;12.13;6.13;;;;;;;27.86;31.40;98493.41;5069606;28;20445;-75
2023/10/10 10:45:35;;;;;;;10.27;6.20;;;;;;;27.55;31.05;98487.47;5079346;28;20877;-74
2023/10/10 10:48:09;;;;;;;10.70;5.47;;;;;;;27.44;31.95;98492.34;5085025;28;20457;-75
2023/10/10 10:50:57;;;;;;;7.67;5.90;;;;;;;27.38;30.55;98496.31;5086653;28;20468;-74
2023/10/10 10:53:35;;;;;;;8.07;5.77;;;;;;;27.82;30.58;98486.78;5081888;28;21286;-74
2023/10/10 11:01:36;;;;;;;8.83;6.20;;;;;;;28.23;26.90;98491.69;5084136;28;20556;-74
2023/10/10 11:04:05;;;;;;;9.40;6.77;;;;;;;28.99;27.38;98491.00;5085989;28;20480;-75
2023/10/10 11:06:32;;;;;;;8.10;6.10;;;;;;;29.20;27.26;98480.25;5085217;28;20553;-75
2023/10/10 11:09:09;;;;;;;10.47;5.80;;;;;;;29.57;26.36;98472.72;5083247;28;20961;-74
2023/10/10 11:11:40;;;;;;;8.07;6.10;;;;;;;29.54;26.29;98482.56;5084868;28;20483;-75
2023/10/10 11:14:15;;;;;;;7.77;5.97;;;;;;;29.95;25.79;98475.94;5084487;28;20514;-74
2023/10/10 11:16:46;;;;;;;10.40;5.53;;;;;;;28.79;26.31;98468.28;5076018;28;20554;-74
2023/10/10 11:19:35;;;;;;;10.77;6.00;;;;;;;28.73;27.54;98462.81;5078524;28;20464;-75
2023/10/10 11:22:05;;;;;;;7.97;5.83;;;;;;;28.76;27.46;98453.84;5086153;28;21055;-74
2023/10/10 11:24:34;;;;;;;8.80;6.57;;;;;;;28.45;27.67;98455.59;5084170;28;20488;-75
2023/10/10 11:27:21;;;;;;;7.47;5.80;;;;;;;27.99;28.58;98456.41;5081959;28;20453;-74
2023/10/10 11:29:50;;;;;;;10.50;6.30;;;;;;;27.79;28.97;98453.16;5085964;28;20453;-74
2023/10/10 11:32:23;;;;;;;7.77;6.10;;;;;;;26.94;27.89;98449.41;5084590;28;20453;-74
2023/10/10 11:34:56;;;;;;;10.33;6.00;;;;;;;27.60;26.29;98440.13;5087399;28;20456;-75
2023/10/10 11:37:25;;;;;;;7.73;5.90;;;;;;;27.60;28.05;98445.69;5084831;28;20480;-75
2023/10/10 11:40:19;;;;;;;10.40;5.57;;;;;;;27.71;28.05;98436.03;5090040;28;20535;-74
2023/10/10 11:42:47;;;;;;;9.57;5.90;;;;;;;27.50;26.25;98433.88;5088413;28;20994;-75
2023/10/10 11:45:17;;;;;;;7.90;5.90;;;;;;;28.12;26.02;98426.13;5082223;28;20450;-75
2023/10/10 11:47:44;;;;;;;7.83;5.30;;;;;;;27.97;26.91;98422.50;5080512;28;20465;-74
2023/10/10 11:50:15;;;;;;;8.73;6.70;;;;;;;27.37;27.87;98427.94;5087004;28;20522;-75
2023/10/10 11:52:52;;;;;;;9.83;6.33;;;;;;;27.19;27.11;98423.22;5083110;28;20481;-74
2023/10/10 11:55:20;;;;;;;8.83;6.67;;;;;;;27.29;26.70;98413.91;5088507;28;20493;-75
2023/10/10 11:57:49;;;;;;;9.73;6.43;;;;;;;27.56;27.19;98413.19;5087025;28;20475;-74
2023/10/10 12:00:22;;;;;;;8.70;5.43;;;;;;;27.00;28.63;98412.09;5087177;28;20470;-74
2023/10/10 12:02:50;;;;;;;8.80;6.20;;;;;;;27.67;28.30;98412.72;5086179;28;21015;-74
2023/10/10 12:08:05;;;;;;;10.43;6.90;;;;;;;28.19;26.21;98405.13;5081180;28;20461;-73
2023/10/10 12:10:42;;;;;;;7.90;6.67;;;;;;;27.85;26.77;98396.31;5084590;28;21110;-75
2023/10/10 12:13:12;;;;;;;9.03;6.27;;;;;;;27.85;27.16;98408.25;5089144;28;20555;-75
2023/10/10 12:15:39;;;;;;;7.70;6.60;;;;;;;27.96;26.22;98394.97;5079058;28;20541;-75
2023/10/10 12:18:09;;;;;;;7.80;5.70;;;;;;;28.00;28.05;98402.41;5085117;28;20480;-74
2023/10/10 12:20:42;;;;;;;12.13;6.90;;;;;;;27.64;28.20;98402.22;5086414;28;20499;-74
2023/10/10 12:23:09;;;;;;;10.03;7.53;;;;;;;27.24;28.63;98398.13;5072328;28;20468;-75
2023/10/10 12:25:40;;;;;;;10.07;6.43;;;;;;;27.30;28.68;98391.34;5087481;28;20489;-79
2023/10/10 12:28:09;;;;;;;9.10;6.43;;;;;;;27.55;27.98;98392.06;5084479;28;20825;-78
2023/10/10 12:30:40;;;;;;;14.10;5.70;;;;;;;28.00;28.20;98391.25;5088622;28;20481;-78
2023/10/10 12:33:08;;;;;;;9.30;6.73;;;;;;;27.66;28.58;98372.13;5088092;28;20808;-78
2023/10/10 12:35:35;;;;;;;8.60;7.03;;;;;;;27.65;28.33;98387.19;5086693;28;20918;-78
2023/10/10 12:38:04;;;;;;;9.40;7.17;;;;;;;27.79;28.36;98387.22;5081792;28;20501;-78
2023/10/10 12:40:33;;;;;;;7.97;5.83;;;;;;;27.74;27.87;98377.00;5073638;28;20469;-78
2023/10/10 12:43:00;;;;;;;10.47;6.70;;;;;;;27.20;28.84;98379.59;5088017;28;21466;-77
2023/10/10 12:45:27;;;;;;;9.10;6.00;;;;;;;27.70;28.20;98378.75;5089941;28;20450;-78
2023/10/10 12:47:55;;;;;;;15.60;7.13;;;;;;;27.85;28.00;98368.47;5082038;28;20473;-78
2023/10/10 12:50:26;;;;;;;10.53;6.90;;;;;;;28.11;27.76;98366.84;5082943;28;20477;-79
2023/10/10 12:53:04;;;;;;;10.90;7.00;;;;;;;27.94;27.22;98370.22;5086512;28;20462;-78
2023/10/10 12:55:32;;;;;;;8.77;6.00;;;;;;;27.71;28.45;98374.00;5086960;28;20445;-78
2023/10/10 12:58:04;;;;;;;8.63;6.27;;;;;;;27.67;27.94;98368.22;5089460;28;20913;-78
2023/10/10 13:00:34;;;;;;;9.90;7.20;;;;;;;26.71;28.06;98373.31;5088245;28;20469;-78
2023/10/10 13:03:01;;;;;;;11.90;7.33;;;;;;;26.56;28.97;98367.97;5088040;28;20450;-78
2023/10/10 13:05:28;;;;;;;8.57;6.50;;;;;;;26.97;28.93;98371.00;5082130;28;20939;-78
2023/10/10 13:07:58;;;;;;;10.17;6.70;;;;;;;27.33;28.24;98371.28;5086344;28;20458;-78
2023/10/10 13:10:27;;;;;;;9.80;6.80;;;;;;;27.62;27.44;98361.91;5087038;28;20511;-78
2023/10/10 13:12:55;;;;;;;10.07;7.10;;;;;;;28.12;26.49;98359.31;5096939;28;20449;-79
2023/10/10 13:15:29;;;;;;;9.27;7.27;;;;;;;28.27;27.40;98359.03;5084885;28;20461;-77
2023/10/10 13:20:39;;;;;;;8.30;7.20;;;;;;;28.73;27.70;98362.50;5082676;28;21110;-79
2023/10/10 13:23:07;;;;;;;10.60;6.57;;;;;;;29.01;27.05;98360.50;5085750;28;20449;-79
2023/10/10 13:25:37;;;;;;;13.13;6.53;;;;;;;29.23;27.08;98358.88;5086215;28;20481;-78
2023/10/10 13:28:09;;;;;;;7.20;6.43;;;;;;;29.18;27.44;98365.41;5082945;28;20461;-79
2023/10/10 13:30:38;;;;;;;6.93;6.00;;;;;;;28.86;28.01;98355.28;5088389;28;20519;-75
2023/10/10 13:33:06;;;;;;;10.93;6.67;;;;;;;29.33;27.11;98358.63;5082387;28;20468;-75
2023/10/10 13:35:36;;;;;;;8.10;7.00;;;;;;;29.51;26.76;98354.03;5072752;28;20460;-75
2023/10/10 13:38:04;;;;;;;10.83;6.90;;;;;;;29.50;26.19;98356.00;5084310;28;20570;-76
2023/10/10 13:40:37;;;;;;;11.03;7.00;;;;;;;28.72;27.68;98358.06;5079029;28;20535;-75
2023/10/10 13:43:08;;;;;;;8.10;6.23;;;;;;;28.43;27.22;98358.44;5084492;28;20449;-74
2023/10/10 13:45:37;;;;;;;7.60;6.30;;;;;;;28.77;27.50;98352.38;5077409;28;20456;-75
2023/10/10 13:48:08;;;;;;;9.90;6.87;;;;;;;28.92;27.38;98356.78;5076915;28;20507;-75